sensor_id;sensor_type;location;lat;lon;timestamp;pressure;altitude;pressure_sealevel;temperature;humidity
39949;BME280;29070;48.102;-1.652;2024-03-08T00:03:33;100283.81;;;8.57;61.99
39949;BME280;29070;48.102;-1.652;2024-03-08T00:08:34;100278.34;;;8.52;62.05
39949;BME280;29070;48.102;-1.652;2024-03-08T00:13:35;100274.09;;;8.51;62.15
39949;BME280;29070;48.102;-1.652;2024-03-08T00:18:35;100265.03;;;8.47;62.32
39949;BME280;29070;48.102;-1.652;2024-03-08T00:23:36;100265.22;;;8.45;62.07
39949;BME280;29070;48.102;-1.652;2024-03-08T00:28:37;100256.31;;;8.39;62.38
39949;BME280;29070;48.102;-1.652;2024-03-08T00:33:37;100256.69;;;8.36;62.38
39949;BME280;29070;48.102;-1.652;2024-03-08T00:38:37;100249.22;;;8.33;62.33
39949;BME280;29070;48.102;-1.652;2024-03-08T00:43:38;100236.72;;;8.29;62.45
39949;BME280;29070;48.102;-1.652;2024-03-08T00:48:38;100238.91;;;8.25;62.44
39949;BME280;29070;48.102;-1.652;2024-03-08T00:53:38;100225.59;;;8.20;62.75
39949;BME280;29070;48.102;-1.652;2024-03-08T00:58:39;100231.59;;;8.14;62.81
39949;BME280;29070;48.102;-1.652;2024-03-08T01:03:40;100223.34;;;8.10;62.60
39949;BME280;29070;48.102;-1.652;2024-03-08T01:08:41;100209.00;;;8.06;63.05
39949;BME280;29070;48.102;-1.652;2024-03-08T01:13:42;100198.13;;;8.02;63.01
39949;BME280;29070;48.102;-1.652;2024-03-08T01:18:43;100187.69;;;8.02;63.21
39949;BME280;29070;48.102;-1.652;2024-03-08T01:23:43;100187.25;;;7.99;63.19
39949;BME280;29070;48.102;-1.652;2024-03-08T01:28:44;100174.38;;;7.97;63.30
39949;BME280;29070;48.102;-1.652;2024-03-08T01:33:44;100174.78;;;7.94;63.42
39949;BME280;29070;48.102;-1.652;2024-03-08T01:38:45;100167.13;;;7.93;63.47
39949;BME280;29070;48.102;-1.652;2024-03-08T01:43:45;100161.47;;;7.89;63.54
39949;BME280;29070;48.102;-1.652;2024-03-08T01:48:46;100151.22;;;7.88;63.49
39949;BME280;29070;48.102;-1.652;2024-03-08T01:53:48;100148.41;;;7.89;63.72
39949;BME280;29070;48.102;-1.652;2024-03-08T01:58:48;100149.41;;;7.88;63.60
39949;BME280;29070;48.102;-1.652;2024-03-08T02:03:49;100144.53;;;7.85;63.65
39949;BME280;29070;48.102;-1.652;2024-03-08T02:08:49;100143.94;;;7.83;63.73
39949;BME280;29070;48.102;-1.652;2024-03-08T02:13:50;100140.09;;;7.79;63.74
39949;BME280;29070;48.102;-1.652;2024-03-08T02:18:50;100142.09;;;7.77;63.80
39949;BME280;29070;48.102;-1.652;2024-03-08T02:23:50;100119.75;;;7.74;64.06
39949;BME280;29070;48.102;-1.652;2024-03-08T02:28:52;100106.28;;;7.71;63.88
39949;BME280;29070;48.102;-1.652;2024-03-08T02:33:52;100089.38;;;7.67;64.05
39949;BME280;29070;48.102;-1.652;2024-03-08T02:38:53;100087.78;;;7.66;64.16
39949;BME280;29070;48.102;-1.652;2024-03-08T02:43:55;100082.94;;;7.62;64.20
39949;BME280;29070;48.102;-1.652;2024-03-08T02:48:56;100070.63;;;7.56;64.08
39949;BME280;29070;48.102;-1.652;2024-03-08T02:53:56;100070.41;;;7.51;64.38
39949;BME280;29070;48.102;-1.652;2024-03-08T02:58:57;100065.38;;;7.50;64.19
39949;BME280;29070;48.102;-1.652;2024-03-08T03:03:57;100058.09;;;7.45;64.68
39949;BME280;29070;48.102;-1.652;2024-03-08T03:08:58;100045.41;;;7.42;64.44
39949;BME280;29070;48.102;-1.652;2024-03-08T03:13:58;100035.75;;;7.36;64.64
39949;BME280;29070;48.102;-1.652;2024-03-08T03:18:58;100031.69;;;7.33;64.54
39949;BME280;29070;48.102;-1.652;2024-03-08T03:24:01;100032.09;;;7.30;64.84
39949;BME280;29070;48.102;-1.652;2024-03-08T03:29:02;100029.25;;;7.25;64.46
39949;BME280;29070;48.102;-1.652;2024-03-08T03:34:03;100024.22;;;7.23;64.58
39949;BME280;29070;48.102;-1.652;2024-03-08T03:39:04;100020.63;;;7.24;65.07
39949;BME280;29070;48.102;-1.652;2024-03-08T03:44:16;100003.94;;;7.25;65.15
39949;BME280;29070;48.102;-1.652;2024-03-08T03:49:16;99999.50;;;7.19;65.11
39949;BME280;29070;48.102;-1.652;2024-03-08T03:54:17;99992.84;;;7.17;65.03
39949;BME280;29070;48.102;-1.652;2024-03-08T03:59:17;99985.59;;;7.12;65.23
39949;BME280;29070;48.102;-1.652;2024-03-08T04:04:18;99985.78;;;7.11;65.00
39949;BME280;29070;48.102;-1.652;2024-03-08T04:09:18;99981.72;;;7.08;65.38
39949;BME280;29070;48.102;-1.652;2024-03-08T04:14:23;99977.53;;;7.07;65.08
39949;BME280;29070;48.102;-1.652;2024-03-08T04:19:23;99963.69;;;7.06;65.20
39949;BME280;29070;48.102;-1.652;2024-03-08T04:24:26;99962.84;;;7.06;65.34
39949;BME280;29070;48.102;-1.652;2024-03-08T04:29:27;99957.44;;;7.07;65.42
39949;BME280;29070;48.102;-1.652;2024-03-08T04:34:27;99951.44;;;7.07;65.43
39949;BME280;29070;48.102;-1.652;2024-03-08T04:39:28;99938.38;;;7.07;65.76
39949;BME280;29070;48.102;-1.652;2024-03-08T04:44:30;99933.91;;;7.01;65.77
39949;BME280;29070;48.102;-1.652;2024-03-08T04:49:31;99916.28;;;7.03;65.64
39949;BME280;29070;48.102;-1.652;2024-03-08T04:54:32;99921.09;;;6.99;65.55
39949;BME280;29070;48.102;-1.652;2024-03-08T04:59:32;99924.25;;;6.95;66.06
39949;BME280;29070;48.102;-1.652;2024-03-08T05:04:33;99913.81;;;6.95;65.88
39949;BME280;29070;48.102;-1.652;2024-03-08T05:09:33;99908.97;;;6.92;65.98
39949;BME280;29070;48.102;-1.652;2024-03-08T05:14:34;99915.81;;;6.93;65.74
39949;BME280;29070;48.102;-1.652;2024-03-08T05:19:36;99908.19;;;6.91;66.28
39949;BME280;29070;48.102;-1.652;2024-03-08T05:24:36;99907.75;;;6.87;65.88
39949;BME280;29070;48.102;-1.652;2024-03-08T05:29:36;99910.97;;;6.90;66.24
39949;BME280;29070;48.102;-1.652;2024-03-08T05:34:37;99910.91;;;6.83;66.07
39949;BME280;29070;48.102;-1.652;2024-03-08T05:39:38;99912.13;;;6.80;66.02
39949;BME280;29070;48.102;-1.652;2024-03-08T05:44:38;99910.91;;;6.76;66.17
39949;BME280;29070;48.102;-1.652;2024-03-08T05:49:40;99902.06;;;6.77;66.63
39949;BME280;29070;48.102;-1.652;2024-03-08T05:54:40;99901.25;;;6.77;66.56
39949;BME280;29070;48.102;-1.652;2024-03-08T05:59:41;99895.63;;;6.73;66.51
39949;BME280;29070;48.102;-1.652;2024-03-08T06:04:41;99898.22;;;6.73;66.29
39949;BME280;29070;48.102;-1.652;2024-03-08T06:09:42;99900.47;;;6.76;66.82
39949;BME280;29070;48.102;-1.652;2024-03-08T06:14:46;99902.84;;;6.78;66.52
39949;BME280;29070;48.102;-1.652;2024-03-08T06:19:46;99907.28;;;6.77;66.93
39949;BME280;29070;48.102;-1.652;2024-03-08T06:24:46;99897.84;;;6.76;66.92
39949;BME280;29070;48.102;-1.652;2024-03-08T06:29:47;99899.63;;;6.76;66.88
39949;BME280;29070;48.102;-1.652;2024-03-08T06:34:49;99898.66;;;6.77;66.83
39949;BME280;29070;48.102;-1.652;2024-03-08T06:39:50;99903.06;;;6.76;66.82
39949;BME280;29070;48.102;-1.652;2024-03-08T06:44:55;99898.22;;;6.73;67.02
39949;BME280;29070;48.102;-1.652;2024-03-08T06:50:00;99902.06;;;6.77;67.23
39949;BME280;29070;48.102;-1.652;2024-03-08T06:55:00;99912.88;;;6.74;66.93
39949;BME280;29070;48.102;-1.652;2024-03-08T07:00:02;99902.84;;;6.71;67.29
39949;BME280;29070;48.102;-1.652;2024-03-08T07:05:04;99900.22;;;6.71;67.30
39949;BME280;29070;48.102;-1.652;2024-03-08T07:10:05;99904.81;;;6.69;67.17
39949;BME280;29070;48.102;-1.652;2024-03-08T07:15:05;99897.97;;;6.68;67.34
39949;BME280;29070;48.102;-1.652;2024-03-08T07:20:06;99892.41;;;6.71;67.40
39949;BME280;29070;48.102;-1.652;2024-03-08T07:25:11;99883.19;;;6.75;68.81
39949;BME280;29070;48.102;-1.652;2024-03-08T07:30:25;99888.84;;;6.79;67.28
39949;BME280;29070;48.102;-1.652;2024-03-08T07:35:44;99894.84;;;6.79;67.40
39949;BME280;29070;48.102;-1.652;2024-03-08T07:40:45;99886.66;;;6.82;67.78
39949;BME280;29070;48.102;-1.652;2024-03-08T07:45:45;99875.47;;;6.89;67.54
39949;BME280;29070;48.102;-1.652;2024-03-08T07:50:46;99876.88;;;6.91;67.96
39949;BME280;29070;48.102;-1.652;2024-03-08T07:55:46;99879.34;;;6.99;67.74
39949;BME280;29070;48.102;-1.652;2024-03-08T08:00:47;99865.31;;;7.07;67.68
39949;BME280;29070;48.102;-1.652;2024-03-08T08:05:48;99859.31;;;7.13;67.91
39949;BME280;29070;48.102;-1.652;2024-03-08T08:10:49;99859.59;;;7.25;67.45
39949;BME280;29070;48.102;-1.652;2024-03-08T08:15:49;99838.97;;;7.37;67.71
39949;BME280;29070;48.102;-1.652;2024-03-08T08:20:50;99845.81;;;7.44;67.79
39949;BME280;29070;48.102;-1.652;2024-03-08T08:25:51;99839.22;;;7.55;67.65
39949;BME280;29070;48.102;-1.652;2024-03-08T08:30:51;99825.38;;;7.68;67.84
39949;BME280;29070;48.102;-1.652;2024-03-08T08:35:52;99816.75;;;7.74;67.62
39949;BME280;29070;48.102;-1.652;2024-03-08T08:40:54;99818.16;;;7.90;67.85
39949;BME280;29070;48.102;-1.652;2024-03-08T08:45:54;99819.19;;;8.02;67.59
39949;BME280;29070;48.102;-1.652;2024-03-08T08:50:55;99827.84;;;8.10;67.37
39949;BME280;29070;48.102;-1.652;2024-03-08T08:55:55;99830.06;;;8.26;67.62
39949;BME280;29070;48.102;-1.652;2024-03-08T09:00:56;99830.47;;;8.36;67.03
39949;BME280;29070;48.102;-1.652;2024-03-08T09:05:56;99819.63;;;8.46;67.35
39949;BME280;29070;48.102;-1.652;2024-03-08T09:10:57;99811.34;;;8.56;66.85
39949;BME280;29070;48.102;-1.652;2024-03-08T09:16:00;99796.44;;;8.63;67.03
39949;BME280;29070;48.102;-1.652;2024-03-08T09:21:00;99783.13;;;8.78;67.02
39949;BME280;29070;48.102;-1.652;2024-03-08T09:26:00;99779.88;;;8.96;66.73
39949;BME280;29070;48.102;-1.652;2024-03-08T09:31:01;99781.56;;;9.15;66.36
39949;BME280;29070;48.102;-1.652;2024-03-08T09:36:02;99790.03;;;9.18;66.61
39949;BME280;29070;48.102;-1.652;2024-03-08T09:41:04;99788.97;;;9.32;66.54
39949;BME280;29070;48.102;-1.652;2024-03-08T09:46:04;99778.06;;;9.35;66.34
39949;BME280;29070;48.102;-1.652;2024-03-08T09:51:08;99767.13;;;9.45;66.22
39949;BME280;29070;48.102;-1.652;2024-03-08T09:56:09;99767.34;;;9.75;66.12
39949;BME280;29070;48.102;-1.652;2024-03-08T10:01:09;99766.09;;;9.78;66.09
39949;BME280;29070;48.102;-1.652;2024-03-08T10:06:09;99758.53;;;9.95;66.17
39949;BME280;29070;48.102;-1.652;2024-03-08T10:11:10;99752.91;;;10.16;65.79
39949;BME280;29070;48.102;-1.652;2024-03-08T10:16:12;99736.66;;;10.26;65.46
39949;BME280;29070;48.102;-1.652;2024-03-08T10:21:12;99741.69;;;10.27;65.37
39949;BME280;29070;48.102;-1.652;2024-03-08T10:26:14;99723.94;;;10.48;65.41
39949;BME280;29070;48.102;-1.652;2024-03-08T10:31:16;99709.44;;;10.82;65.37
39949;BME280;29070;48.102;-1.652;2024-03-08T10:36:16;99706.69;;;10.89;64.93
39949;BME280;29070;48.102;-1.652;2024-03-08T10:41:17;99695.03;;;11.15;65.00
39949;BME280;29070;48.102;-1.652;2024-03-08T10:46:39;99692.38;;;11.03;62.67
39949;BME280;29070;48.102;-1.652;2024-03-08T10:51:42;99684.31;;;11.17;64.62
39949;BME280;29070;48.102;-1.652;2024-03-08T10:56:42;99685.97;;;11.41;64.58
39949;BME280;29070;48.102;-1.652;2024-03-08T11:01:43;99682.47;;;11.59;64.30
39949;BME280;29070;48.102;-1.652;2024-03-08T11:06:45;99681.56;;;11.77;63.86
39949;BME280;29070;48.102;-1.652;2024-03-08T11:11:46;99676.44;;;11.82;63.74
39949;BME280;29070;48.102;-1.652;2024-03-08T11:16:46;99668.06;;;11.86;63.79
39949;BME280;29070;48.102;-1.652;2024-03-08T11:21:47;99667.88;;;11.99;64.13
39949;BME280;29070;48.102;-1.652;2024-03-08T11:26:47;99665.44;;;11.86;63.54
39949;BME280;29070;48.102;-1.652;2024-03-08T11:31:48;99654.59;;;12.06;63.81
39949;BME280;29070;48.102;-1.652;2024-03-08T11:36:48;99657.75;;;12.31;63.52
39949;BME280;29070;48.102;-1.652;2024-03-08T11:41:48;99665.63;;;12.43;63.16
39949;BME280;29070;48.102;-1.652;2024-03-08T11:46:49;99665.59;;;12.55;62.98
39949;BME280;29070;48.102;-1.652;2024-03-08T11:51:53;99665.47;;;12.50;62.89
39949;BME280;29070;48.102;-1.652;2024-03-08T11:56:57;99645.13;;;12.45;63.01
39949;BME280;29070;48.102;-1.652;2024-03-08T12:02:05;99648.50;;;12.29;62.52
39949;BME280;29070;48.102;-1.652;2024-03-08T12:07:09;99628.69;;;12.38;62.91
39949;BME280;29070;48.102;-1.652;2024-03-08T12:12:12;99615.53;;;12.38;62.93
39949;BME280;29070;48.102;-1.652;2024-03-08T12:17:12;99609.41;;;12.49;62.75
39949;BME280;29070;48.102;-1.652;2024-03-08T12:22:14;99603.25;;;12.44;62.74
39949;BME280;29070;48.102;-1.652;2024-03-08T12:27:19;99594.66;;;12.48;62.54
39949;BME280;29070;48.102;-1.652;2024-03-08T12:32:20;99588.91;;;12.51;62.76
39949;BME280;29070;48.102;-1.652;2024-03-08T12:37:23;99576.94;;;12.44;62.66
39949;BME280;29070;48.102;-1.652;2024-03-08T12:42:23;99563.75;;;12.72;62.42
39949;BME280;29070;48.102;-1.652;2024-03-08T12:47:24;99548.31;;;13.10;62.37
39949;BME280;29070;48.102;-1.652;2024-03-08T12:52:24;99538.91;;;13.31;62.01
39949;BME280;29070;48.102;-1.652;2024-03-08T12:57:25;99547.22;;;13.62;61.64
39949;BME280;29070;48.102;-1.652;2024-03-08T13:02:28;99540.38;;;13.83;61.17
39949;BME280;29070;48.102;-1.652;2024-03-08T13:07:28;99520.38;;;13.87;60.99
39949;BME280;29070;48.102;-1.652;2024-03-08T13:12:29;99519.59;;;14.14;61.00
39949;BME280;29070;48.102;-1.652;2024-03-08T13:17:29;99502.81;;;14.25;60.62
39949;BME280;29070;48.102;-1.652;2024-03-08T13:22:29;99471.41;;;14.23;60.49
39949;BME280;29070;48.102;-1.652;2024-03-08T13:27:30;99468.28;;;13.99;60.68
39949;BME280;29070;48.102;-1.652;2024-03-08T13:32:30;99465.25;;;14.45;60.69
39949;BME280;29070;48.102;-1.652;2024-03-08T13:37:31;99477.03;;;14.59;60.44
39949;BME280;29070;48.102;-1.652;2024-03-08T13:42:33;99457.13;;;14.52;60.07
39949;BME280;29070;48.102;-1.652;2024-03-08T13:47:33;99456.63;;;14.22;60.26
39949;BME280;29070;48.102;-1.652;2024-03-08T13:52:34;99462.81;;;14.06;60.42
39949;BME280;29070;48.102;-1.652;2024-03-08T13:57:34;99443.56;;;14.10;60.36
39949;BME280;29070;48.102;-1.652;2024-03-08T14:02:35;99441.13;;;14.04;60.31
39949;BME280;29070;48.102;-1.652;2024-03-08T14:07:35;99424.03;;;14.06;60.41
39949;BME280;29070;48.102;-1.652;2024-03-08T14:12:36;99421.28;;;13.96;60.19
39949;BME280;29070;48.102;-1.652;2024-03-08T14:17:38;99414.97;;;13.97;60.48
39949;BME280;29070;48.102;-1.652;2024-03-08T14:22:38;99411.19;;;13.88;60.46
39949;BME280;29070;48.102;-1.652;2024-03-08T14:27:39;99416.84;;;14.02;60.39
39949;BME280;29070;48.102;-1.652;2024-03-08T14:32:40;99415.31;;;14.06;60.41
39949;BME280;29070;48.102;-1.652;2024-03-08T14:37:41;99415.47;;;13.94;60.48
39949;BME280;29070;48.102;-1.652;2024-03-08T14:42:43;99423.44;;;13.99;60.42
39949;BME280;29070;48.102;-1.652;2024-03-08T14:47:48;99401.53;;;13.99;60.29
39949;BME280;29070;48.102;-1.652;2024-03-08T14:52:52;99394.22;;;14.06;60.33
39949;BME280;29070;48.102;-1.652;2024-03-08T14:57:53;99387.81;;;14.02;60.28
39949;BME280;29070;48.102;-1.652;2024-03-08T15:02:54;99384.41;;;14.01;60.32
39949;BME280;29070;48.102;-1.652;2024-03-08T15:07:54;99395.38;;;13.88;60.40
39949;BME280;29070;48.102;-1.652;2024-03-08T15:12:55;99402.94;;;13.79;60.44
39949;BME280;29070;48.102;-1.652;2024-03-08T15:17:55;99406.28;;;13.75;60.48
39949;BME280;29070;48.102;-1.652;2024-03-08T15:22:58;99412.06;;;13.71;60.68
39949;BME280;29070;48.102;-1.652;2024-03-08T15:27:58;99412.28;;;13.65;60.67
39949;BME280;29070;48.102;-1.652;2024-03-08T15:32:58;99422.50;;;13.61;60.76
39949;BME280;29070;48.102;-1.652;2024-03-08T15:38:04;99418.66;;;13.47;60.82
39949;BME280;29070;48.102;-1.652;2024-03-08T15:43:04;99414.91;;;13.43;60.77
39949;BME280;29070;48.102;-1.652;2024-03-08T15:48:05;99414.66;;;13.44;60.72
39949;BME280;29070;48.102;-1.652;2024-03-08T15:53:06;99413.97;;;13.32;60.85
39949;BME280;29070;48.102;-1.652;2024-03-08T15:58:06;99407.22;;;13.19;60.97
39949;BME280;29070;48.102;-1.652;2024-03-08T16:03:07;99401.63;;;13.15;61.17
39949;BME280;29070;48.102;-1.652;2024-03-08T16:08:11;99386.75;;;13.04;61.64
39949;BME280;29070;48.102;-1.652;2024-03-08T16:13:16;99388.00;;;13.02;61.91
39949;BME280;29070;48.102;-1.652;2024-03-08T16:18:18;99401.06;;;12.91;62.19
39949;BME280;29070;48.102;-1.652;2024-03-08T16:23:22;99393.34;;;12.85;62.43
39949;BME280;29070;48.102;-1.652;2024-03-08T16:28:23;99393.66;;;12.71;62.63
39949;BME280;29070;48.102;-1.652;2024-03-08T16:33:28;99388.66;;;12.70;62.87
39949;BME280;29070;48.102;-1.652;2024-03-08T16:38:28;99393.34;;;12.68;63.20
39949;BME280;29070;48.102;-1.652;2024-03-08T16:43:28;99372.16;;;12.57;63.27
39949;BME280;29070;48.102;-1.652;2024-03-08T16:48:29;99368.94;;;12.55;63.50
39949;BME280;29070;48.102;-1.652;2024-03-08T16:53:30;99378.22;;;12.41;63.96
39949;BME280;29070;48.102;-1.652;2024-03-08T16:58:34;99377.09;;;12.37;64.26
39949;BME280;29070;48.102;-1.652;2024-03-08T17:03:34;99364.19;;;12.35;64.19
39949;BME280;29070;48.102;-1.652;2024-03-08T17:08:36;99377.44;;;12.24;64.60
39949;BME280;29070;48.102;-1.652;2024-03-08T17:13:37;99366.75;;;12.13;65.03
39949;BME280;29070;48.102;-1.652;2024-03-08T17:18:38;99365.63;;;12.09;65.05
39949;BME280;29070;48.102;-1.652;2024-03-08T17:23:39;99372.28;;;12.00;65.38
39949;BME280;29070;48.102;-1.652;2024-03-08T17:28:40;99376.81;;;11.88;65.51
39949;BME280;29070;48.102;-1.652;2024-03-08T17:33:43;99374.09;;;11.82;65.87
39949;BME280;29070;48.102;-1.652;2024-03-08T17:38:43;99375.00;;;11.76;66.06
39949;BME280;29070;48.102;-1.652;2024-03-08T17:43:46;99365.78;;;11.74;66.06
39949;BME280;29070;48.102;-1.652;2024-03-08T17:48:46;99368.66;;;11.60;66.12
39949;BME280;29070;48.102;-1.652;2024-03-08T17:53:47;99372.72;;;11.51;66.52
39949;BME280;29070;48.102;-1.652;2024-03-08T17:58:49;99370.59;;;11.36;66.99
39949;BME280;29070;48.102;-1.652;2024-03-08T18:03:50;99353.63;;;11.27;67.07
39949;BME280;29070;48.102;-1.652;2024-03-08T18:08:51;99358.31;;;11.13;67.41
39949;BME280;29070;48.102;-1.652;2024-03-08T18:13:52;99359.72;;;11.04;67.46
39949;BME280;29070;48.102;-1.652;2024-03-08T18:18:52;99341.72;;;10.84;67.81
39949;BME280;29070;48.102;-1.652;2024-03-08T18:23:53;99341.94;;;10.82;67.97
39949;BME280;29070;48.102;-1.652;2024-03-08T18:28:53;99340.72;;;10.73;68.24
39949;BME280;29070;48.102;-1.652;2024-03-08T18:33:53;99337.75;;;10.58;68.85
39949;BME280;29070;48.102;-1.652;2024-03-08T18:38:54;99342.66;;;10.54;69.02
39949;BME280;29070;48.102;-1.652;2024-03-08T18:43:54;99331.59;;;10.52;69.14
39949;BME280;29070;48.102;-1.652;2024-03-08T18:48:57;99333.31;;;10.46;69.39
39949;BME280;29070;48.102;-1.652;2024-03-08T18:53:59;99342.75;;;10.36;69.47
39949;BME280;29070;48.102;-1.652;2024-03-08T18:58:59;99337.19;;;10.32;69.86
39949;BME280;29070;48.102;-1.652;2024-03-08T19:04:00;99331.56;;;10.28;69.81
39949;BME280;29070;48.102;-1.652;2024-03-08T19:09:00;99325.06;;;10.31;69.87
39949;BME280;29070;48.102;-1.652;2024-03-08T19:14:04;99337.78;;;10.16;70.08
39949;BME280;29070;48.102;-1.652;2024-03-08T19:19:05;99329.00;;;10.10;70.42
39949;BME280;29070;48.102;-1.652;2024-03-08T19:24:06;99334.81;;;10.12;70.56
39949;BME280;29070;48.102;-1.652;2024-03-08T19:29:07;99323.63;;;10.05;70.64
39949;BME280;29070;48.102;-1.652;2024-03-08T19:34:11;99319.09;;;10.00;70.73
39949;BME280;29070;48.102;-1.652;2024-03-08T19:39:12;99319.06;;;9.88;70.77
39949;BME280;29070;48.102;-1.652;2024-03-08T19:44:12;99309.47;;;9.82;70.92
39949;BME280;29070;48.102;-1.652;2024-03-08T19:49:14;99300.44;;;9.78;71.05
39949;BME280;29070;48.102;-1.652;2024-03-08T19:54:17;99295.22;;;9.78;71.30
39949;BME280;29070;48.102;-1.652;2024-03-08T19:59:17;99287.25;;;9.73;71.26
39949;BME280;29070;48.102;-1.652;2024-03-08T20:04:19;99275.38;;;9.70;71.48
39949;BME280;29070;48.102;-1.652;2024-03-08T20:09:21;99279.81;;;9.70;71.53
39949;BME280;29070;48.102;-1.652;2024-03-08T20:14:21;99274.19;;;9.54;71.97
39949;BME280;29070;48.102;-1.652;2024-03-08T20:19:24;99263.84;;;9.48;71.95
39949;BME280;29070;48.102;-1.652;2024-03-08T20:24:25;99254.16;;;9.48;72.01
39949;BME280;29070;48.102;-1.652;2024-03-08T20:29:25;99259.47;;;9.42;72.06
39949;BME280;29070;48.102;-1.652;2024-03-08T20:34:27;99257.50;;;9.37;72.26
39949;BME280;29070;48.102;-1.652;2024-03-08T20:39:27;99244.75;;;9.29;72.19
39949;BME280;29070;48.102;-1.652;2024-03-08T20:44:29;99245.06;;;9.21;72.41
39949;BME280;29070;48.102;-1.652;2024-03-08T20:49:31;99245.19;;;9.26;72.56
39949;BME280;29070;48.102;-1.652;2024-03-08T20:54:32;99235.97;;;9.23;72.38
39949;BME280;29070;48.102;-1.652;2024-03-08T20:59:36;99230.69;;;9.11;72.75
39949;BME280;29070;48.102;-1.652;2024-03-08T21:04:36;99227.94;;;9.06;72.52
39949;BME280;29070;48.102;-1.652;2024-03-08T21:09:37;99215.75;;;9.00;72.90
39949;BME280;29070;48.102;-1.652;2024-03-08T21:14:37;99221.28;;;8.92;72.97
39949;BME280;29070;48.102;-1.652;2024-03-08T21:19:38;99211.22;;;8.89;73.03
39949;BME280;29070;48.102;-1.652;2024-03-08T21:24:44;99205.78;;;8.90;73.18
39949;BME280;29070;48.102;-1.652;2024-03-08T21:29:44;99202.94;;;8.92;73.12
39949;BME280;29070;48.102;-1.652;2024-03-08T21:34:45;99201.81;;;8.88;73.50
39949;BME280;29070;48.102;-1.652;2024-03-08T21:39:46;99197.38;;;8.88;73.29
39949;BME280;29070;48.102;-1.652;2024-03-08T21:44:46;99192.91;;;8.89;73.41
39949;BME280;29070;48.102;-1.652;2024-03-08T21:49:47;99177.34;;;8.82;73.49
39949;BME280;29070;48.102;-1.652;2024-03-08T21:54:50;99176.97;;;8.78;73.78
39949;BME280;29070;48.102;-1.652;2024-03-08T21:59:51;99161.63;;;8.82;73.84
39949;BME280;29070;48.102;-1.652;2024-03-08T22:04:54;99156.03;;;8.78;73.83
39949;BME280;29070;48.102;-1.652;2024-03-08T22:09:54;99154.00;;;8.81;73.93
39949;BME280;29070;48.102;-1.652;2024-03-08T22:14:54;99150.34;;;8.82;74.02
39949;BME280;29070;48.102;-1.652;2024-03-08T22:19:55;99152.41;;;8.80;74.42
39949;BME280;29070;48.102;-1.652;2024-03-08T22:24:55;99147.63;;;8.76;74.35
39949;BME280;29070;48.102;-1.652;2024-03-08T22:29:56;99138.38;;;8.74;74.25
39949;BME280;29070;48.102;-1.652;2024-03-08T22:34:57;99122.34;;;8.70;74.21
39949;BME280;29070;48.102;-1.652;2024-03-08T22:39:57;99126.72;;;8.58;74.28
39949;BME280;29070;48.102;-1.652;2024-03-08T22:44:58;99109.88;;;8.54;74.46
39949;BME280;29070;48.102;-1.652;2024-03-08T22:49:59;99104.00;;;8.58;74.74
39949;BME280;29070;48.102;-1.652;2024-03-08T22:55:00;99090.44;;;8.50;74.77
39949;BME280;29070;48.102;-1.652;2024-03-08T23:00:00;99091.69;;;8.40;74.76
39949;BME280;29070;48.102;-1.652;2024-03-08T23:05:01;99093.84;;;8.32;75.09
39949;BME280;29070;48.102;-1.652;2024-03-08T23:10:01;99085.75;;;8.33;74.69
39949;BME280;29070;48.102;-1.652;2024-03-08T23:15:03;99083.03;;;8.28;74.61
39949;BME280;29070;48.102;-1.652;2024-03-08T23:20:03;99082.56;;;8.31;74.76
39949;BME280;29070;48.102;-1.652;2024-03-08T23:25:06;99081.44;;;8.27;74.70
39949;BME280;29070;48.102;-1.652;2024-03-08T23:30:10;99067.56;;;8.27;74.89
39949;BME280;29070;48.102;-1.652;2024-03-08T23:35:10;99067.84;;;8.18;75.08
39949;BME280;29070;48.102;-1.652;2024-03-08T23:40:16;99065.06;;;8.01;74.97
39949;BME280;29070;48.102;-1.652;2024-03-08T23:45:19;99061.25;;;7.97;75.29
39949;BME280;29070;48.102;-1.652;2024-03-08T23:50:24;99044.44;;;7.93;75.23
39949;BME280;29070;48.102;-1.652;2024-03-08T23:55:31;99063.31;;;7.95;75.36
